Time;durP1;ratioP1;P1;durP2;ratioP2;P2;SDS_P1;SDS_P2;PMS_P1;PMS_P2;Temp;Humidity;BMP_temperature;BMP_pressure;BME280_temperature;BME280_humidity;BME280_pressure;Samples;Min_cycle;Max_cycle;Signal;HPM_P1;HPM_P2
2021/04/08 00:02:03;;;;;;;0.10;0.10;;;1.90;96.20;;;;;;4972805;28;20030;-94
2021/04/08 00:04:30;;;;;;;0.10;0.10;;;1.80;96.30;;;;;;4966714;28;20118;-92
2021/04/08 00:06:57;;;;;;;0.10;0.10;;;1.90;96.30;;;;;;4966909;28;20066;-91
2021/04/08 00:09:23;;;;;;;;;;;1.80;96.40;;;;;;4968635;28;20126;-91
2021/04/08 00:11:49;;;;;;;0.10;0.10;;;1.80;96.40;;;;;;4968619;28;19990;-92
2021/04/08 00:14:14;;;;;;;0.10;0.10;;;1.70;96.90;;;;;;4970243;28;20039;-92
2021/04/08 00:16:41;;;;;;;0.20;0.20;;;1.60;99.90;;;;;;4989690;28;20034;-92
2021/04/08 00:19:10;;;;;;;0.10;0.10;;;1.60;96.90;;;;;;4974801;28;20030;-93
2021/04/08 00:21:36;;;;;;;0.28;0.28;;;1.50;97.00;;;;;;4968482;28;20080;-91
2021/04/08 00:24:03;;;;;;;0.10;0.10;;;1.60;96.70;;;;;;4972222;28;20023;-90
2021/04/08 00:26:29;;;;;;;0.10;0.10;;;1.50;97.00;;;;;;4972413;28;20039;-90
2021/04/08 00:28:55;;;;;;;0.10;0.10;;;1.50;97.30;;;;;;4971514;28;20089;-90
2021/04/08 00:31:21;;;;;;;0.10;0.10;;;1.60;97.20;;;;;;4972393;28;20041;-90
2021/04/08 00:33:47;;;;;;;0.10;0.10;;;1.50;97.00;;;;;;4972539;28;20027;-91
2021/04/08 00:36:12;;;;;;;0.13;0.13;;;1.40;97.30;;;;;;4988197;28;20051;-90
2021/04/08 00:38:38;;;;;;;0.10;0.10;;;1.50;97.20;;;;;;4971551;28;20054;-89
2021/04/08 00:41:04;;;;;;;0.28;0.28;;;1.30;97.10;;;;;;4956763;28;20053;-91
2021/04/08 00:43:30;;;;;;;0.10;0.10;;;1.40;97.50;;;;;;4968830;28;20398;-92
2021/04/08 00:45:56;;;;;;;0.20;0.20;;;1.30;97.40;;;;;;4970897;28;20022;-91
2021/04/08 00:48:22;;;;;;;0.28;0.28;;;1.20;98.50;;;;;;4972903;28;20082;-90
2021/04/08 00:50:48;;;;;;;0.10;0.10;;;1.00;98.00;;;;;;4960814;28;20031;-93
2021/04/08 00:53:18;;;;;;;0.10;0.10;;;0.90;98.20;;;;;;4972243;28;20026;-91
2021/04/08 00:55:47;;;;;;;0.10;0.10;;;0.90;98.30;;;;;;4971413;28;20406;-91
2021/04/08 00:58:15;;;;;;;0.17;0.17;;;0.90;98.70;;;;;;4971808;28;20026;-92
2021/04/08 01:00:43;;;;;;;0.60;0.50;;;0.90;98.50;;;;;;4971124;28;20026;-91
2021/04/08 01:03:10;;;;;;;0.68;0.57;;;0.90;98.60;;;;;;4970894;28;20066;-91
2021/04/08 01:05:37;;;;;;;0.10;0.10;;;0.90;98.70;;;;;;4981650;28;20027;-91
2021/04/08 01:08:03;;;;;;;0.10;0.10;;;0.70;98.90;;;;;;4970697;28;20269;-91
2021/04/08 01:10:29;;;;;;;0.10;0.10;;;0.70;99.00;;;;;;4970748;28;20113;-91
2021/04/08 01:13:06;;;;;;;0.10;0.10;;;0.70;99.10;;;;;;4974213;28;20023;-92
2021/04/08 01:15:33;;;;;;;0.10;0.10;;;0.80;99.30;;;;;;4971482;28;20482;-90
2021/04/08 01:18:15;;;;;;;0.10;0.10;;;0.70;99.10;;;;;;4971590;28;20022;-90
2021/04/08 01:20:59;;;;;;;0.10;0.10;;;0.70;99.00;;;;;;4970582;28;20519;-90
2021/04/08 01:23:46;;;;;;;0.10;0.10;;;0.70;99.40;;;;;;4986004;28;20035;-89
2021/04/08 01:26:26;;;;;;;0.10;0.10;;;0.50;99.70;;;;;;4984541;28;20063;-88
2021/04/08 01:29:07;;;;;;;0.32;0.32;;;0.60;99.80;;;;;;4957096;28;20031;-89
2021/04/08 01:31:35;;;;;;;1.30;0.80;;;0.50;99.70;;;;;;4971429;28;20031;-90
2021/04/08 01:34:13;;;;;;;0.10;0.10;;;0.50;99.90;;;;;;4971848;28;20019;-91
2021/04/08 01:36:42;;;;;;;0.10;0.10;;;0.40;99.90;;;;;;4973533;28;20074;-91
2021/04/08 01:39:17;;;;;;;0.10;0.10;;;0.50;99.90;;;;;;4973525;28;20041;-90
2021/04/08 01:41:45;;;;;;;0.20;0.20;;;0.40;99.90;;;;;;4970303;28;20058;-90
2021/04/08 01:44:16;;;;;;;0.10;0.10;;;0.40;99.90;;;;;;4984980;28;20503;-91
2021/04/08 01:46:45;;;;;;;0.17;0.17;;;0.40;99.90;;;;;;4974350;28;20128;-94
2021/04/08 01:49:13;;;;;;;0.55;0.55;;;0.40;99.90;;;;;;4974682;28;20026;-93
2021/04/08 01:51:39;;;;;;;0.10;0.10;;;0.40;99.90;;;;;;4974226;28;20026;-94
2021/04/08 01:54:08;;;;;;;0.10;0.10;;;0.50;99.90;;;;;;4975258;28;20038;-93
2021/04/08 01:56:36;;;;;;;0.63;0.40;;;0.30;99.90;;;;;;4974126;28;20403;-93
2021/04/08 01:59:03;;;;;;;0.03;0.03;;;0.20;99.90;;;;;;4975527;28;20031;-94
2021/04/08 02:01:29;;;;;;;0.10;0.10;;;0.40;99.90;;;;;;4975452;28;20022;-91
2021/04/08 02:03:57;;;;;;;0.10;0.10;;;0.30;99.90;;;;;;4974668;28;20033;-92
2021/04/08 02:06:27;;;;;;;0.10;0.10;;;0.20;99.90;;;;;;4972968;28;20442;-92
2021/04/08 02:08:55;;;;;;;0.10;0.10;;;0.30;99.90;;;;;;4972919;28;20038;-92
2021/04/08 02:11:22;;;;;;;0.15;0.15;;;0.40;99.90;;;;;;4972466;28;20031;-91
2021/04/08 02:13:50;;;;;;;0.10;0.10;;;0.30;99.90;;;;;;4972941;28;20023;-93
2021/04/08 02:16:19;;;;;;;0.10;0.10;;;0.20;99.90;;;;;;4974003;28;20109;-93
2021/04/08 02:18:47;;;;;;;0.20;0.20;;;0.30;99.90;;;;;;4973656;28;20399;-93
2021/04/08 02:21:14;;;;;;;0.40;0.30;;;0.40;99.90;;;;;;4973238;28;20084;-92
2021/04/08 02:23:42;;;;;;;0.08;0.08;;;0.30;99.90;;;;;;4972010;28;20031;-93
2021/04/08 02:26:14;;;;;;;0.28;0.28;;;0.40;99.90;;;;;;4972852;28;20808;-92
2021/04/08 02:28:42;;;;;;;0.10;0.10;;;0.20;99.90;;;;;;4971399;28;20054;-92
2021/04/08 02:31:09;;;;;;;0.10;0.10;;;0.10;99.90;;;;;;4975267;28;20085;-92
2021/04/08 02:33:34;;;;;;;;;;;0.10;99.90;;;;;;4972463;28;20030;-90
2021/04/08 02:36:02;;;;;;;0.10;0.10;;;0.00;99.90;;;;;;4971404;28;20291;-91
2021/04/08 02:38:30;;;;;;;0.13;0.13;;;0.10;99.90;;;;;;4970676;28;20034;-91
2021/04/08 02:40:58;;;;;;;0.10;0.10;;;0.00;99.90;;;;;;4971746;28;20039;-91
2021/04/08 02:43:24;;;;;;;0.05;0.05;;;0.00;99.90;;;;;;4970140;28;20031;-90
2021/04/08 02:45:51;;;;;;;5.78;1.92;;;0.00;99.90;;;;;;4961787;28;20082;-91
2021/04/08 02:48:18;;;;;;;0.25;0.25;;;0.10;99.90;;;;;;4967814;28;20061;-90
2021/04/08 02:50:49;;;;;;;0.10;0.10;;;0.00;99.90;;;;;;4971209;28;20046;-90
2021/04/08 02:53:31;;;;;;;0.10;0.10;;;0.10;99.90;;;;;;4969409;28;20045;-90
2021/04/08 02:56:11;;;;;;;0.10;0.10;;;0.20;99.90;;;;;;4969120;28;20044;-91
2021/04/08 02:58:39;;;;;;;0.10;0.10;;;0.30;99.90;;;;;;4971376;28;20403;-92
2021/04/08 03:01:11;;;;;;;0.20;0.20;;;0.40;99.90;;;;;;4970379;28;20545;-91
2021/04/08 03:03:46;;;;;;;0.47;0.47;;;0.50;99.90;;;;;;4972632;28;20029;-93
2021/04/08 03:06:12;;;;;;;0.50;0.50;;;0.40;99.90;;;;;;4974200;28;20051;-94
2021/04/08 03:08:42;;;;;;;0.17;0.17;;;0.50;99.90;;;;;;4973848;28;20081;-92
2021/04/08 03:11:09;;;;;;;0.10;0.10;;;0.50;99.90;;;;;;4973526;28;20117;-92
2021/04/08 03:13:40;;;;;;;0.10;0.10;;;0.50;99.90;;;;;;4973725;28;20027;-95
2021/04/08 03:16:10;;;;;;;0.17;0.17;;;0.50;99.90;;;;;;4973991;28;20026;-93
2021/04/08 03:18:40;;;;;;;0.10;0.10;;;0.50;99.90;;;;;;4973964;28;20494;-92
2021/04/08 03:21:08;;;;;;;0.10;0.10;;;0.40;99.90;;;;;;4973799;28;20027;-93
2021/04/08 03:23:34;;;;;;;0.10;0.10;;;0.40;99.90;;;;;;4974092;28;20031;-92
2021/04/08 03:26:02;;;;;;;0.20;0.20;;;0.40;99.90;;;;;;4973549;28;20491;-92
2021/04/08 03:28:28;;;;;;;0.20;0.20;;;0.40;99.90;;;;;;4972586;28;20407;-92
2021/04/08 03:30:55;;;;;;;0.10;0.10;;;0.40;99.90;;;;;;4971552;28;20023;-91
2021/04/08 03:33:21;;;;;;;;;;;0.40;99.90;;;;;;4971044;28;20030;-91
2021/04/08 03:35:48;;;;;;;0.10;0.10;;;0.40;99.90;;;;;;4971104;28;19913;-91
2021/04/08 03:38:19;;;;;;;0.20;0.20;;;0.30;99.90;;;;;;4970315;28;20486;-91
2021/04/08 03:40:46;;;;;;;0.10;0.10;;;0.30;99.90;;;;;;4972668;28;20446;-92
2021/04/08 03:43:12;;;;;;;;;;;0.40;99.90;;;;;;4971971;28;20050;-92
2021/04/08 03:45:39;;;;;;;0.10;0.10;;;0.30;99.90;;;;;;4972160;28;19906;-91
2021/04/08 03:48:07;;;;;;;0.10;0.10;;;0.30;99.90;;;;;;4970486;28;20430;-91
2021/04/08 03:50:34;;;;;;;0.25;0.25;;;0.40;99.90;;;;;;4970900;28;20038;-91
2021/04/08 03:53:01;;;;;;;0.10;0.10;;;0.40;99.90;;;;;;4963161;28;20022;-90
2021/04/08 03:55:28;;;;;;;0.20;0.20;;;0.40;99.90;;;;;;4959378;28;20027;-91
2021/04/08 03:57:54;;;;;;;0.10;0.10;;;0.30;99.90;;;;;;4975877;28;20407;-91
2021/04/08 04:00:20;;;;;;;0.10;0.10;;;0.20;99.90;;;;;;4959805;28;20042;-90
2021/04/08 04:02:47;;;;;;;0.20;0.20;;;0.10;99.90;;;;;;4975967;28;20023;-91
2021/04/08 04:05:13;;;;;;;0.63;0.63;;;0.10;99.90;;;;;;4974393;28;20086;-89
2021/04/08 04:07:41;;;;;;;0.10;0.10;;;0.10;99.90;;;;;;4970883;28;20089;-89
2021/04/08 04:10:08;;;;;;;0.10;0.10;;;0.00;99.90;;;;;;4972070;28;20054;-90
2021/04/08 04:12:35;;;;;;;0.10;0.10;;;-0.10;99.90;;;;;;4972831;28;20074;-92
2021/04/08 04:15:06;;;;;;;0.20;0.20;;;-0.10;99.90;;;;;;4961377;28;20028;-92
2021/04/08 04:17:33;;;;;;;0.08;0.08;;;0.10;99.90;;;;;;4962977;28;20038;-91
2021/04/08 04:19:59;;;;;;;0.10;0.10;;;0.30;99.90;;;;;;4972021;28;20027;-90
2021/04/08 04:22:26;;;;;;;0.10;0.10;;;0.10;99.90;;;;;;4974587;28;20554;-93
2021/04/08 04:24:52;;;;;;;0.17;0.17;;;0.00;99.90;;;;;;4975213;28;20128;-92
2021/04/08 04:27:17;;;;;;;0.35;0.35;;;-0.10;99.90;;;;;;4974510;28;20154;-91
2021/04/08 04:29:43;;;;;;;4.00;0.52;;;-0.10;99.90;;;;;;4972497;28;20035;-91
2021/04/08 04:32:11;;;;;;;0.10;0.10;;;-0.20;99.90;;;;;;4973718;28;20469;-92
2021/04/08 04:34:40;;;;;;;0.25;0.25;;;0.00;99.90;;;;;;4972299;28;20093;-92
2021/04/08 04:37:06;;;;;;;0.75;0.68;;;-0.10;99.90;;;;;;4969935;28;20034;-91
2021/04/08 04:39:32;;;;;;;0.00;0.00;;;-0.10;99.90;;;;;;4958732;28;20038;-92
2021/04/08 04:41:58;;;;;;;1.98;1.60;;;-0.20;99.90;;;;;;4972913;28;20026;-91
2021/04/08 04:44:24;;;;;;;0.10;0.10;;;-0.20;99.90;;;;;;4972182;28;20495;-91
2021/04/08 04:46:53;;;;;;;0.10;0.10;;;-0.20;99.90;;;;;;4971312;28;20038;-91
2021/04/08 04:49:19;;;;;;;0.17;0.17;;;-0.20;99.90;;;;;;4971549;28;20054;-92
2021/04/08 04:51:45;;;;;;;0.10;0.10;;;-0.30;99.90;;;;;;4971517;28;20065;-92
2021/04/08 04:54:10;;;;;;;0.00;0.00;;;-0.20;99.90;;;;;;4971613;28;20045;-87
2021/04/08 04:56:36;;;;;;;0.10;0.10;;;-0.40;99.90;;;;;;4972956;28;20015;-95
2021/04/08 04:59:02;;;;;;;0.00;0.00;;;-0.40;99.90;;;;;;4974668;28;20050;-94
2021/04/08 05:01:28;;;;;;;0.88;0.75;;;-0.60;99.90;;;;;;4975233;28;20042;-90
2021/04/08 05:03:58;;;;;;;0.10;0.10;;;-0.50;99.90;;;;;;4972677;28;20031;-94
2021/04/08 05:06:24;;;;;;;5.93;1.88;;;-0.70;99.90;;;;;;4975551;28;20029;-92
2021/04/08 05:08:50;;;;;;;0.10;0.10;;;-0.70;99.90;;;;;;4975603;28;20453;-93
2021/04/08 05:11:16;;;;;;;0.10;0.10;;;-0.70;99.90;;;;;;4974883;28;20042;-93
2021/04/08 05:13:42;;;;;;;0.20;0.20;;;-0.70;99.90;;;;;;4977563;28;20030;-95
2021/04/08 05:16:07;;;;;;;0.00;0.00;;;-0.70;99.90;;;;;;4976920;28;20015;-93
2021/04/08 05:18:33;;;;;;;0.10;0.10;;;-0.80;99.90;;;;;;4976134;28;20081;-93
2021/04/08 05:20:59;;;;;;;0.10;0.10;;;-0.80;99.90;;;;;;4977161;28;20364;-93
2021/04/08 05:23:25;;;;;;;0.00;0.00;;;-0.70;99.90;;;;;;4975694;28;20078;-93
2021/04/08 05:25:52;;;;;;;0.08;0.08;;;-0.80;99.90;;;;;;4976754;28;20403;-94
2021/04/08 05:28:18;;;;;;;0.70;0.70;;;-0.80;99.90;;;;;;4976032;28;20061;-91
2021/04/08 05:30:44;;;;;;;1.13;0.80;;;-0.80;99.90;;;;;;4976915;28;20043;-96
2021/04/08 05:33:10;;;;;;;0.10;0.10;;;-0.50;99.90;;;;;;4975586;28;20026;-93
2021/04/08 05:35:36;;;;;;;0.10;0.10;;;-0.40;99.90;;;;;;4975541;28;20099;-92
2021/04/08 05:38:02;;;;;;;0.10;0.10;;;0.20;99.90;;;;;;4975768;28;20266;-92
2021/04/08 05:40:29;;;;;;;0.10;0.10;;;0.60;99.90;;;;;;4976092;28;20498;-91
2021/04/08 05:42:55;;;;;;;0.30;0.30;;;1.00;99.90;;;;;;4974991;28;20030;-94
2021/04/08 05:45:23;;;;;;;0.10;0.10;;;1.10;99.90;;;;;;4975233;28;20062;-94
2021/04/08 05:47:50;;;;;;;0.10;0.10;;;1.50;99.90;;;;;;4975095;28;20074;-95
2021/04/08 05:50:17;;;;;;;0.10;0.10;;;1.70;99.90;;;;;;4974917;28;20031;-93
2021/04/08 05:52:43;;;;;;;0.30;0.30;;;2.00;99.90;;;;;;4973734;28;20107;-93
2021/04/08 05:55:10;;;;;;;0.55;0.55;;;2.20;99.90;;;;;;4973593;28;20487;-92
2021/04/08 05:57:36;;;;;;;0.20;0.20;;;2.50;99.90;;;;;;4973044;28;20030;-94
2021/04/08 06:00:07;;;;;;;0.63;0.52;;;2.60;99.90;;;;;;4972167;28;20081;-93
2021/04/08 06:02:33;;;;;;;0.10;0.10;;;2.80;99.90;;;;;;4972099;28;20054;-93
2021/04/08 06:04:59;;;;;;;0.25;0.25;;;3.10;99.90;;;;;;4985822;28;20018;-91
2021/04/08 06:07:26;;;;;;;0.20;0.20;;;3.20;99.90;;;;;;4954306;28;20035;-92
2021/04/08 06:09:52;;;;;;;0.20;0.20;;;3.60;99.90;;;;;;4966322;28;20107;-91
2021/04/08 06:12:19;;;;;;;0.90;0.90;;;3.80;99.90;;;;;;4972313;28;20077;-93
2021/04/08 06:14:47;;;;;;;0.10;0.10;;;4.00;99.90;;;;;;4973006;28;20115;-92
2021/04/08 06:17:13;;;;;;;0.35;0.35;;;3.90;99.90;;;;;;4974341;28;20034;-95
2021/04/08 06:19:38;;;;;;;0.10;0.10;;;4.20;99.90;;;;;;4975547;28;20027;-91
2021/04/08 06:22:04;;;;;;;0.40;0.40;;;4.50;99.60;;;;;;4968110;28;20043;-91
2021/04/08 06:24:30;;;;;;;0.20;0.20;;;4.60;99.60;;;;;;4968806;28;20034;-94
2021/04/08 06:26:57;;;;;;;0.47;0.47;;;4.70;99.00;;;;;;4973509;28;20022;-92
2021/04/08 06:29:27;;;;;;;18.83;0.73;;;5.00;98.60;;;;;;4972526;28;20081;-95
2021/04/08 06:31:53;;;;;;;0.47;0.47;;;5.20;98.60;;;;;;4973599;28;20495;-93
2021/04/08 06:34:20;;;;;;;0.10;0.10;;;5.20;98.50;;;;;;4974308;28;20034;-96
2021/04/08 06:36:47;;;;;;;0.10;0.10;;;5.30;98.70;;;;;;4965600;28;20560;-93
2021/04/08 06:39:18;;;;;;;0.57;0.20;;;6.00;97.10;;;;;;4969864;28;20038;-94
2021/04/08 06:41:45;;;;;;;0.20;0.20;;;6.30;96.90;;;;;;4971195;28;20054;-92
2021/04/08 06:44:14;;;;;;;1.55;0.85;;;6.40;96.50;;;;;;4968113;28;20414;-95
2021/04/08 06:46:44;;;;;;;0.28;0.28;;;6.70;96.00;;;;;;4971956;28;20027;-91
2021/04/08 06:49:31;;;;;;;0.00;0.00;;;6.80;95.10;;;;;;4967344;28;20522;-93
2021/04/08 06:51:58;;;;;;;0.00;0.00;;;7.20;95.30;;;;;;4988210;28;20026;-90
2021/04/08 06:54:26;;;;;;;0.20;0.20;;;7.20;95.20;;;;;;4968738;28;20491;-92
2021/04/08 06:56:52;;;;;;;0.10;0.10;;;7.70;95.00;;;;;;4964614;28;20038;-90
2021/04/08 06:59:18;;;;;;;0.00;0.00;;;7.80;94.50;;;;;;4968188;28;20039;-91
2021/04/08 07:01:46;;;;;;;0.50;0.50;;;8.40;93.50;;;;;;4969622;28;20033;-92
2021/04/08 07:04:13;;;;;;;0.40;0.20;;;8.10;94.00;;;;;;4970242;28;20150;-91
2021/04/08 07:06:40;;;;;;;0.20;0.20;;;7.80;94.50;;;;;;4968442;28;20125;-91
2021/04/08 07:09:09;;;;;;;0.10;0.10;;;8.50;93.10;;;;;;4968332;28;20023;-91
2021/04/08 07:11:36;;;;;;;0.47;0.45;;;8.30;93.50;;;;;;4967918;28;20030;-90
2021/04/08 07:14:03;;;;;;;0.10;0.10;;;8.60;92.80;;;;;;4968914;28;20487;-91
2021/04/08 07:16:30;;;;;;;0.00;0.00;;;8.80;93.10;;;;;;4969031;28;20627;-91
2021/04/08 07:18:58;;;;;;;0.30;0.30;;;9.10;92.00;;;;;;4968021;28;20046;-90
2021/04/08 07:21:31;;;;;;;0.30;0.30;;;9.60;91.20;;;;;;4968695;28;20045;-91
2021/04/08 07:24:17;;;;;;;0.35;0.35;;;10.30;91.10;;;;;;4968466;28;20027;-90
2021/04/08 07:26:53;;;;;;;0.57;0.25;;;10.40;89.70;;;;;;4967432;28;20042;-91
2021/04/08 07:29:20;;;;;;;0.07;0.07;;;10.40;87.90;;;;;;4958413;28;20090;-91
2021/04/08 07:31:46;;;;;;;0.00;0.00;;;10.90;85.70;;;;;;4968202;28;20018;-92
2021/04/08 07:34:12;;;;;;;0.17;0.17;;;10.90;88.90;;;;;;4984015;28;20038;-92
2021/04/08 07:36:40;;;;;;;0.80;0.80;;;10.80;89.40;;;;;;4982520;28;20089;-91
2021/04/08 07:39:18;;;;;;;0.20;0.20;;;10.80;89.40;;;;;;4983441;28;20102;-91
2021/04/08 07:41:58;;;;;;;0.43;0.43;;;10.80;87.30;;;;;;4982968;28;20035;-91
2021/04/08 07:44:24;;;;;;;0.63;0.63;;;10.90;87.60;;;;;;4964629;28;20030;-89
2021/04/08 07:46:50;;;;;;;0.00;0.00;;;10.60;84.20;;;;;;4962785;28;20080;-91
2021/04/08 07:49:28;;;;;;;0.20;0.20;;;11.30;85.30;;;;;;4961856;28;20113;-91
2021/04/08 07:51:55;;;;;;;0.10;0.10;;;11.80;84.30;;;;;;4981996;28;20035;-92
2021/04/08 07:54:21;;;;;;;0.10;0.10;;;11.60;81.20;;;;;;4975602;28;20472;-91
2021/04/08 07:56:47;;;;;;;0.30;0.30;;;11.90;84.70;;;;;;4965909;28;20038;-90
2021/04/08 07:59:28;;;;;;;3.63;0.30;;;11.90;81.50;;;;;;4968223;28;20046;-89
2021/04/08 08:02:08;;;;;;;0.30;0.30;;;12.80;81.80;;;;;;4966454;28;20361;-89
2021/04/08 08:04:34;;;;;;;0.10;0.10;;;12.10;82.40;;;;;;4967168;28;20114;-89
2021/04/08 08:07:00;;;;;;;0.20;0.20;;;12.50;80.30;;;;;;4966112;28;20070;-89
2021/04/08 08:09:31;;;;;;;4.07;0.55;;;12.50;82.30;;;;;;4961883;28;20315;-89
2021/04/08 08:12:06;;;;;;;0.20;0.20;;;12.40;81.80;;;;;;4966647;28;20553;-88
2021/04/08 08:14:34;;;;;;;1.60;0.80;;;13.60;77.80;;;;;;4967503;28;20069;-92
2021/04/08 08:17:15;;;;;;;0.98;0.68;;;13.80;75.00;;;;;;4967977;28;20021;-89
2021/04/08 08:19:43;;;;;;;0.20;0.10;;;14.20;74.80;;;;;;4967633;28;20026;-91
2021/04/08 08:22:23;;;;;;;0.20;0.20;;;14.00;75.10;;;;;;4967834;28;20509;-89
2021/04/08 08:24:58;;;;;;;0.17;0.17;;;15.10;69.70;;;;;;4966746;28;20564;-90
2021/04/08 08:27:40;;;;;;;0.20;0.20;;;15.50;69.20;;;;;;4965561;28;20027;-89
2021/04/08 08:30:14;;;;;;;0.63;0.63;;;16.20;65.00;;;;;;4966860;28;20029;-89
2021/04/08 08:33:03;;;;;;;0.10;0.10;;;16.30;67.20;;;;;;4967293;28;20033;-90
2021/04/08 08:35:29;;;;;;;0.38;0.38;;;15.70;66.40;;;;;;4985212;28;20034;-90
2021/04/08 08:37:57;;;;;;;0.27;0.27;;;14.70;65.60;;;;;;4971691;28;20026;-89
2021/04/08 08:40:23;;;;;;;1.10;0.28;;;17.00;62.90;;;;;;4971289;28;20689;-89
2021/04/08 08:42:54;;;;;;;0.90;0.45;;;16.90;62.50;;;;;;4972401;28;20407;-90
2021/04/08 08:45:20;;;;;;;0.20;0.20;;;17.60;61.90;;;;;;4970542;28;20399;-89
2021/04/08 08:47:50;;;;;;;0.03;0.03;;;17.30;57.90;;;;;;4987394;28;20066;-90
2021/04/08 08:50:18;;;;;;;0.10;0.10;;;17.90;63.50;;;;;;4972188;28;20027;-90
2021/04/08 08:52:51;;;;;;;0.10;0.10;;;19.60;53.10;;;;;;4968944;28;20089;-90
2021/04/08 08:55:24;;;;;;;0.70;0.43;;;19.80;54.60;;;;;;4970828;28;20034;-91
2021/04/08 08:57:52;;;;;;;0.22;0.22;;;19.20;57.90;;;;;;4969704;28;20159;-90
2021/04/08 09:00:19;;;;;;;0.70;0.28;;;19.80;55.80;;;;;;4971408;28;20027;-90
2021/04/08 09:02:46;;;;;;;0.20;0.20;;;20.10;54.10;;;;;;4965398;28;20410;-91
2021/04/08 09:05:16;;;;;;;0.15;0.15;;;22.60;47.80;;;;;;4971215;28;20038;-89
2021/04/08 09:07:45;;;;;;;0.73;0.73;;;22.40;45.80;;;;;;4970044;28;20065;-91
2021/04/08 09:10:13;;;;;;;0.22;0.22;;;22.90;43.00;;;;;;4965821;28;20031;-91
2021/04/08 09:12:40;;;;;;;0.10;0.10;;;22.90;46.00;;;;;;4966614;28;20035;-90
2021/04/08 09:15:07;;;;;;;;;;;21.10;40.40;;;;;;4971149;28;20058;-89
2021/04/08 09:17:48;;;;;;;0.15;0.15;;;23.80;41.40;;;;;;4970331;28;19914;-89
2021/04/08 09:20:19;;;;;;;0.22;0.22;;;21.50;47.30;;;;;;4967828;28;20043;-89
2021/04/08 09:23:08;;;;;;;0.10;0.10;;;21.60;48.00;;;;;;4967772;28;20031;-89
2021/04/08 09:25:56;;;;;;;0.10;0.10;;;25.30;32.50;;;;;;4960253;28;20027;-90
2021/04/08 09:28:30;;;;;;;0.28;0.28;;;23.80;34.90;;;;;;4967538;28;20031;-89
2021/04/08 09:31:09;;;;;;;0.47;0.47;;;22.70;40.90;;;;;;4969916;28;20553;-89
2021/04/08 09:33:41;;;;;;;0.10;0.10;;;24.60;30.80;;;;;;4971344;28;20046;-90
2021/04/08 09:36:26;;;;;;;0.30;0.20;;;26.10;29.00;;;;;;4970906;28;20030;-90
2021/04/08 09:38:55;;;;;;;0.05;0.05;;;23.80;34.70;;;;;;4955341;28;20766;-88
2021/04/08 09:42:02;;;;;;;0.17;0.17;;;21.90;36.90;;;;;;4960759;28;20654;-88
2021/04/08 09:44:29;;;;;;;0.30;0.30;;;21.80;33.80;;;;;;4923487;28;20019;-90
2021/04/08 09:46:58;;;;;;;0.20;0.20;;;22.60;33.40;;;;;;4916253;29;20149;-90
2021/04/08 09:49:40;;;;;;;0.15;0.15;;;21.70;30.90;;;;;;4943594;29;20067;-89
2021/04/08 09:52:06;;;;;;;0.10;0.10;;;24.60;27.10;;;;;;4948512;28;20038;-90
2021/04/08 09:54:41;;;;;;;0.28;0.28;;;26.20;23.30;;;;;;4943497;28;20046;-88
2021/04/08 09:57:08;;;;;;;0.10;0.10;;;27.50;22.80;;;;;;4942399;29;20759;-89
2021/04/08 09:59:56;;;;;;;;;;;27.60;23.00;;;;;;4937656;29;20042;-88
2021/04/08 10:02:23;;;;;;;0.10;0.10;;;26.20;24.30;;;;;;4948184;29;20453;-88
2021/04/08 10:05:06;;;;;;;0.10;0.10;;;21.30;29.40;;;;;;4919601;29;20031;-89
2021/04/08 10:07:48;;;;;;;0.00;0.00;;;21.90;31.70;;;;;;4940098;28;20131;-87
2021/04/08 10:10:14;;;;;;;1.65;0.55;;;20.70;31.40;;;;;;4927281;29;20039;-91
2021/04/08 10:12:40;;;;;;;0.28;0.28;;;23.50;27.90;;;;;;4919043;29;20468;-88
2021/04/08 10:15:06;;;;;;;0.10;0.10;;;25.30;20.90;;;;;;4936708;28;20161;-90
2021/04/08 10:17:37;;;;;;;0.10;0.10;;;25.40;23.90;;;;;;4966911;28;20034;-89
2021/04/08 10:20:06;;;;;;;0.00;0.00;;;24.70;26.50;;;;;;4969635;28;20409;-90
2021/04/08 10:22:43;;;;;;;0.00;0.00;;;22.50;29.00;;;;;;4969225;28;20031;-89
2021/04/08 10:25:10;;;;;;;0.00;0.00;;;27.90;19.70;;;;;;4968615;28;20026;-88
2021/04/08 10:27:37;;;;;;;0.10;0.10;;;22.20;26.30;;;;;;4968325;28;20023;-87
2021/04/08 10:30:21;;;;;;;0.38;0.38;;;21.60;26.90;;;;;;4967314;28;21505;-89
2021/04/08 10:32:46;;;;;;;0.10;0.10;;;25.00;21.50;;;;;;4969358;28;20027;-87
2021/04/08 10:35:27;;;;;;;0.57;0.57;;;25.50;20.40;;;;;;4984530;28;20033;-87
2021/04/08 10:38:02;;;;;;;0.28;0.28;;;25.30;23.50;;;;;;4968336;28;20784;-86
2021/04/08 10:40:28;;;;;;;0.10;0.10;;;25.50;23.40;;;;;;4968639;28;20054;-87
2021/04/08 10:43:16;;;;;;;0.10;0.10;;;21.20;27.10;;;;;;4959816;28;20027;-88
2021/04/08 10:45:56;;;;;;;0.10;0.10;;;23.10;25.60;;;;;;4971885;28;20034;-87
2021/04/08 10:48:24;;;;;;;0.20;0.20;;;23.00;26.60;;;;;;4975603;28;20519;-91
2021/04/08 10:50:52;;;;;;;0.47;0.30;;;23.30;24.80;;;;;;4972694;28;20118;-90
2021/04/08 10:53:26;;;;;;;0.00;0.00;;;27.90;19.00;;;;;;4982439;28;20549;-91
2021/04/08 10:55:54;;;;;;;0.30;0.30;;;28.30;18.40;;;;;;4968579;28;20046;-90
2021/04/08 10:58:27;;;;;;;0.10;0.10;;;28.70;17.50;;;;;;4973010;28;20030;-91
2021/04/08 11:01:03;;;;;;;0.17;0.17;;;29.10;15.10;;;;;;4987991;28;20121;-90
2021/04/08 11:03:29;;;;;;;;;;;27.90;18.20;;;;;;4966338;28;20046;-90
2021/04/08 11:05:55;;;;;;;0.10;0.10;;;27.80;16.50;;;;;;4965900;28;20354;-92
2021/04/08 11:08:21;;;;;;;0.43;0.43;;;28.30;15.80;;;;;;4972172;28;20537;-87
2021/04/08 11:10:47;;;;;;;0.00;0.00;;;25.50;24.30;;;;;;4969910;28;20031;-90
2021/04/08 11:13:14;;;;;;;0.10;0.10;;;21.60;25.80;;;;;;4968469;28;20754;-89
2021/04/08 11:15:44;;;;;;;0.20;0.20;;;22.60;24.10;;;;;;4966858;28;20631;-88
2021/04/08 11:18:20;;;;;;;0.10;0.10;;;23.10;27.90;;;;;;4967480;28;20386;-89
2021/04/08 11:20:49;;;;;;;0.35;0.35;;;24.70;22.40;;;;;;4967501;28;20050;-89
2021/04/08 11:23:20;;;;;;;0.00;0.00;;;20.40;28.10;;;;;;4967238;28;20035;-88
2021/04/08 11:26:00;;;;;;;0.10;0.10;;;23.10;24.60;;;;;;4981853;28;20026;-88
2021/04/08 11:28:26;;;;;;;0.10;0.10;;;21.70;28.30;;;;;;4970235;28;20462;-88
2021/04/08 11:30:51;;;;;;;0.28;0.28;;;24.30;25.40;;;;;;4983637;28;20026;-88
2021/04/08 11:33:22;;;;;;;0.20;0.20;;;27.80;20.50;;;;;;4967435;28;20042;-89
2021/04/08 11:35:48;;;;;;;0.00;0.00;;;28.10;17.90;;;;;;4969003;28;20031;-87
2021/04/08 11:38:23;;;;;;;0.00;0.00;;;23.40;22.90;;;;;;4967845;28;20034;-86
2021/04/08 11:41:09;;;;;;;0.00;0.00;;;17.90;29.70;;;;;;4968776;28;20030;-87
2021/04/08 11:43:42;;;;;;;0.20;0.20;;;16.10;35.00;;;;;;4966583;28;20031;-89
2021/04/08 11:46:45;;;;;;;0.45;0.43;;;15.80;37.00;;;;;;4983572;28;20894;-86
2021/04/08 11:49:17;;;;;;;0.10;0.10;;;16.10;36.40;;;;;;4981049;28;20042;-91
2021/04/08 11:51:43;;;;;;;0.10;0.10;;;15.90;36.50;;;;;;4967554;28;20034;-90
2021/04/08 11:54:16;;;;;;;0.00;0.00;;;15.30;38.60;;;;;;4981819;28;20038;-90
2021/04/08 11:56:45;;;;;;;0.03;0.03;;;15.80;37.50;;;;;;4981163;28;20023;-90
2021/04/08 11:59:18;;;;;;;2.50;0.45;;;15.70;37.10;;;;;;4950814;28;20037;-89
2021/04/08 12:01:54;;;;;;;0.20;0.20;;;16.20;36.20;;;;;;4964713;28;20035;-87
2021/04/08 12:04:27;;;;;;;0.45;0.20;;;15.90;37.20;;;;;;4960589;28;20776;-88
2021/04/08 12:07:07;;;;;;;0.00;0.00;;;16.20;36.40;;;;;;4968353;28;20037;-87
2021/04/08 12:09:34;;;;;;;0.03;0.03;;;16.30;37.60;;;;;;4967196;28;20027;-86
2021/04/08 12:12:00;;;;;;;;;;;15.40;38.20;;;;;;4986643;28;20042;-87
2021/04/08 12:14:26;;;;;;;0.15;0.15;;;15.60;38.50;;;;;;4986961;28;20428;-88
2021/04/08 12:17:08;;;;;;;0.25;0.20;;;15.60;37.90;;;;;;4965431;28;20023;-86
2021/04/08 12:19:36;;;;;;;0.10;0.10;;;16.20;31.80;;;;;;4970476;28;20061;-90
2021/04/08 12:22:11;;;;;;;0.08;0.08;;;16.00;35.70;;;;;;4972616;28;20019;-87
2021/04/08 12:24:37;;;;;;;0.10;0.10;;;15.90;36.10;;;;;;4970259;28;20402;-87
2021/04/08 12:27:15;;;;;;;0.25;0.25;;;16.30;35.90;;;;;;4983275;28;20090;-87
2021/04/08 12:29:41;;;;;;;0.75;0.75;;;16.10;35.40;;;;;;4969839;28;20082;-86
2021/04/08 12:32:06;;;;;;;0.20;0.20;;;15.80;36.70;;;;;;4972332;28;20034;-86
2021/04/08 12:34:32;;;;;;;0.00;0.00;;;15.70;36.30;;;;;;4970940;28;20042;-86
2021/04/08 12:36:58;;;;;;;0.00;0.00;;;15.90;37.40;;;;;;4972049;28;20019;-86
2021/04/08 12:39:24;;;;;;;0.10;0.10;;;15.60;35.80;;;;;;4972131;28;20114;-85
2021/04/08 12:41:50;;;;;;;0.08;0.08;;;15.60;36.70;;;;;;4986929;28;20478;-86
2021/04/08 12:44:16;;;;;;;0.87;0.37;;;15.60;36.60;;;;;;4972386;28;20114;-87
2021/04/08 12:46:42;;;;;;;0.10;0.10;;;15.90;36.20;;;;;;4970430;28;20117;-87
2021/04/08 12:49:07;;;;;;;0.10;0.10;;;16.10;36.00;;;;;;4964728;28;20043;-86
2021/04/08 12:51:33;;;;;;;0.00;0.00;;;15.80;35.00;;;;;;4970164;28;20046;-86
2021/04/08 12:54:00;;;;;;;0.00;0.00;;;16.30;34.10;;;;;;4970196;28;20089;-86
2021/04/08 12:56:26;;;;;;;0.00;0.00;;;16.40;33.80;;;;;;4966598;28;20081;-88
2021/04/08 12:58:52;;;;;;;0.00;0.00;;;16.10;32.60;;;;;;4971079;28;20479;-87
2021/04/08 13:01:18;;;;;;;0.10;0.10;;;15.80;33.50;;;;;;4971757;28;20041;-86
2021/04/08 13:03:44;;;;;;;0.65;0.40;;;15.90;34.90;;;;;;4971415;28;20030;-85
2021/04/08 13:06:11;;;;;;;0.00;0.00;;;16.00;33.70;;;;;;4970957;28;20402;-87